sensor_id;sensor_type;location;lat;lon;timestamp;temperature;humidity
46336;DHT22;31365;48.858;8.530;2022-07-06T00:01:27;17.60;95.00
46336;DHT22;31365;48.858;8.530;2022-07-06T00:03:55;17.60;95.10
46336;DHT22;31365;48.858;8.530;2022-07-06T00:06:24;17.60;95.20
46336;DHT22;31365;48.858;8.530;2022-07-06T00:08:52;17.50;95.40
46336;DHT22;31365;48.858;8.530;2022-07-06T00:11:21;17.50;95.50
46336;DHT22;31365;48.858;8.530;2022-07-06T00:13:52;17.50;95.60
46336;DHT22;31365;48.858;8.530;2022-07-06T00:16:20;17.40;95.60
46336;DHT22;31365;48.858;8.530;2022-07-06T00:18:49;17.40;95.50
46336;DHT22;31365;48.858;8.530;2022-07-06T00:21:18;17.40;95.80
46336;DHT22;31365;48.858;8.530;2022-07-06T00:28:24;17.20;96.20
46336;DHT22;31365;48.858;8.530;2022-07-06T00:30:54;17.10;96.60
46336;DHT22;31365;48.858;8.530;2022-07-06T00:33:24;17.00;96.30
46336;DHT22;31365;48.858;8.530;2022-07-06T00:35:53;17.10;95.90
46336;DHT22;31365;48.858;8.530;2022-07-06T00:38:22;17.10;95.20
46336;DHT22;31365;48.858;8.530;2022-07-06T00:40:50;17.30;94.80
46336;DHT22;31365;48.858;8.530;2022-07-06T00:43:19;17.40;94.60
46336;DHT22;31365;48.858;8.530;2022-07-06T00:45:47;17.50;94.30
46336;DHT22;31365;48.858;8.530;2022-07-06T00:48:17;17.60;94.20
46336;DHT22;31365;48.858;8.530;2022-07-06T00:50:46;17.60;94.20
46336;DHT22;31365;48.858;8.530;2022-07-06T00:53:14;17.60;94.10
46336;DHT22;31365;48.858;8.530;2022-07-06T00:55:43;17.70;94.30
46336;DHT22;31365;48.858;8.530;2022-07-06T00:58:11;17.60;94.30
46336;DHT22;31365;48.858;8.530;2022-07-06T01:00:40;17.50;94.40
46336;DHT22;31365;48.858;8.530;2022-07-06T01:03:12;17.60;94.50
46336;DHT22;31365;48.858;8.530;2022-07-06T01:05:41;17.40;94.70
46336;DHT22;31365;48.858;8.530;2022-07-06T01:08:12;17.40;94.80
46336;DHT22;31365;48.858;8.530;2022-07-06T01:10:41;17.40;95.00
46336;DHT22;31365;48.858;8.530;2022-07-06T01:13:09;17.40;95.30
46336;DHT22;31365;48.858;8.530;2022-07-06T01:15:38;17.30;95.40
46336;DHT22;31365;48.858;8.530;2022-07-06T01:18:09;17.20;95.80
46336;DHT22;31365;48.858;8.530;2022-07-06T01:20:40;17.20;96.00
46336;DHT22;31365;48.858;8.530;2022-07-06T01:23:09;17.20;96.00
46336;DHT22;31365;48.858;8.530;2022-07-06T01:25:38;17.20;96.10
46336;DHT22;31365;48.858;8.530;2022-07-06T01:28:06;17.20;96.20
46336;DHT22;31365;48.858;8.530;2022-07-06T01:30:35;17.20;96.30
46336;DHT22;31365;48.858;8.530;2022-07-06T01:33:04;17.10;96.50
46336;DHT22;31365;48.858;8.530;2022-07-06T01:35:33;17.00;96.60
46336;DHT22;31365;48.858;8.530;2022-07-06T01:38:06;17.00;96.90
46336;DHT22;31365;48.858;8.530;2022-07-06T01:40:35;16.80;97.00
46336;DHT22;31365;48.858;8.530;2022-07-06T01:43:03;16.80;97.00
46336;DHT22;31365;48.858;8.530;2022-07-06T01:45:32;16.80;97.30
46336;DHT22;31365;48.858;8.530;2022-07-06T01:48:00;16.80;97.40
46336;DHT22;31365;48.858;8.530;2022-07-06T01:50:33;16.70;97.50
46336;DHT22;31365;48.858;8.530;2022-07-06T01:53:02;16.60;97.60
46336;DHT22;31365;48.858;8.530;2022-07-06T01:55:31;16.50;98.00
46336;DHT22;31365;48.858;8.530;2022-07-06T01:58:00;16.50;98.20
46336;DHT22;31365;48.858;8.530;2022-07-06T02:00:28;16.50;98.40
46336;DHT22;31365;48.858;8.530;2022-07-06T02:02:57;16.40;98.50
46336;DHT22;31365;48.858;8.530;2022-07-06T02:05:26;16.40;98.60
46336;DHT22;31365;48.858;8.530;2022-07-06T02:07:54;16.50;99.00
46336;DHT22;31365;48.858;8.530;2022-07-06T02:10:23;16.30;98.90
46336;DHT22;31365;48.858;8.530;2022-07-06T02:12:53;16.30;99.00
46336;DHT22;31365;48.858;8.530;2022-07-06T02:15:22;16.30;99.10
46336;DHT22;31365;48.858;8.530;2022-07-06T02:17:50;16.20;99.40
46336;DHT22;31365;48.858;8.530;2022-07-06T02:20:18;16.20;99.60
46336;DHT22;31365;48.858;8.530;2022-07-06T02:22:47;16.20;99.70
46336;DHT22;31365;48.858;8.530;2022-07-06T02:25:16;16.20;99.80
46336;DHT22;31365;48.858;8.530;2022-07-06T02:27:45;16.20;99.90
46336;DHT22;31365;48.858;8.530;2022-07-06T02:30:16;16.10;99.90
46336;DHT22;31365;48.858;8.530;2022-07-06T02:32:45;16.10;99.90
46336;DHT22;31365;48.858;8.530;2022-07-06T02:35:14;16.00;99.90
46336;DHT22;31365;48.858;8.530;2022-07-06T02:37:43;15.90;99.90
46336;DHT22;31365;48.858;8.530;2022-07-06T02:40:12;15.90;99.90
46336;DHT22;31365;48.858;8.530;2022-07-06T02:42:41;16.00;99.90
46336;DHT22;31365;48.858;8.530;2022-07-06T02:45:10;16.00;99.90
46336;DHT22;31365;48.858;8.530;2022-07-06T02:47:41;16.10;99.90
46336;DHT22;31365;48.858;8.530;2022-07-06T02:50:09;16.00;99.90
46336;DHT22;31365;48.858;8.530;2022-07-06T02:52:39;16.20;99.90
46336;DHT22;31365;48.858;8.530;2022-07-06T02:55:09;16.00;99.90
46336;DHT22;31365;48.858;8.530;2022-07-06T02:57:39;15.90;99.90
46336;DHT22;31365;48.858;8.530;2022-07-06T03:00:08;15.80;99.90
46336;DHT22;31365;48.858;8.530;2022-07-06T03:02:39;15.80;99.90
46336;DHT22;31365;48.858;8.530;2022-07-06T03:05:09;15.80;99.90
46336;DHT22;31365;48.858;8.530;2022-07-06T03:07:38;15.80;99.90
46336;DHT22;31365;48.858;8.530;2022-07-06T03:10:08;15.80;99.90
46336;DHT22;31365;48.858;8.530;2022-07-06T03:12:36;15.70;99.90
46336;DHT22;31365;48.858;8.530;2022-07-06T03:15:06;15.70;99.90
46336;DHT22;31365;48.858;8.530;2022-07-06T03:17:38;15.70;99.90
46336;DHT22;31365;48.858;8.530;2022-07-06T03:20:10;15.70;99.90
46336;DHT22;31365;48.858;8.530;2022-07-06T03:22:39;15.70;99.90
46336;DHT22;31365;48.858;8.530;2022-07-06T03:25:09;15.60;99.90
46336;DHT22;31365;48.858;8.530;2022-07-06T03:27:39;15.60;99.90
46336;DHT22;31365;48.858;8.530;2022-07-06T03:30:10;15.60;99.90
46336;DHT22;31365;48.858;8.530;2022-07-06T03:32:43;15.70;99.90
46336;DHT22;31365;48.858;8.530;2022-07-06T03:35:14;15.60;99.90
46336;DHT22;31365;48.858;8.530;2022-07-06T03:37:44;15.60;99.90
46336;DHT22;31365;48.858;8.530;2022-07-06T03:40:14;15.60;99.90
46336;DHT22;31365;48.858;8.530;2022-07-06T03:42:46;15.50;99.90
46336;DHT22;31365;48.858;8.530;2022-07-06T03:45:15;15.50;99.90
46336;DHT22;31365;48.858;8.530;2022-07-06T03:47:43;15.50;99.90
46336;DHT22;31365;48.858;8.530;2022-07-06T03:50:14;15.50;99.90
46336;DHT22;31365;48.858;8.530;2022-07-06T03:52:44;15.40;99.90
46336;DHT22;31365;48.858;8.530;2022-07-06T03:55:13;15.40;99.90
46336;DHT22;31365;48.858;8.530;2022-07-06T03:57:47;15.50;99.90
46336;DHT22;31365;48.858;8.530;2022-07-06T04:00:19;15.40;99.90
46336;DHT22;31365;48.858;8.530;2022-07-06T04:02:56;15.40;99.90
46336;DHT22;31365;48.858;8.530;2022-07-06T04:05:30;15.40;99.90
46336;DHT22;31365;48.858;8.530;2022-07-06T04:07:58;15.40;99.90
46336;DHT22;31365;48.858;8.530;2022-07-06T04:10:34;15.40;99.90
46336;DHT22;31365;48.858;8.530;2022-07-06T04:13:03;15.40;99.90
46336;DHT22;31365;48.858;8.530;2022-07-06T04:15:31;15.40;99.90
46336;DHT22;31365;48.858;8.530;2022-07-06T04:17:59;15.40;99.90
46336;DHT22;31365;48.858;8.530;2022-07-06T04:20:34;15.40;99.90
46336;DHT22;31365;48.858;8.530;2022-07-06T04:23:03;15.40;99.90
46336;DHT22;31365;48.858;8.530;2022-07-06T04:25:31;15.40;99.90
46336;DHT22;31365;48.858;8.530;2022-07-06T04:28:02;15.50;99.90
46336;DHT22;31365;48.858;8.530;2022-07-06T04:30:34;15.50;99.90
46336;DHT22;31365;48.858;8.530;2022-07-06T04:33:06;15.60;99.90
46336;DHT22;31365;48.858;8.530;2022-07-06T04:35:36;15.60;99.90
46336;DHT22;31365;48.858;8.530;2022-07-06T04:38:05;15.80;99.90
46336;DHT22;31365;48.858;8.530;2022-07-06T04:40:34;15.80;99.90
46336;DHT22;31365;48.858;8.530;2022-07-06T04:43:07;15.80;99.90
46336;DHT22;31365;48.858;8.530;2022-07-06T04:45:36;15.80;99.90
46336;DHT22;31365;48.858;8.530;2022-07-06T04:48:05;15.90;99.90
46336;DHT22;31365;48.858;8.530;2022-07-06T04:50:37;15.90;99.90
46336;DHT22;31365;48.858;8.530;2022-07-06T04:53:11;16.10;99.90
46336;DHT22;31365;48.858;8.530;2022-07-06T04:55:41;16.10;99.90
46336;DHT22;31365;48.858;8.530;2022-07-06T04:58:09;16.20;99.90
46336;DHT22;31365;48.858;8.530;2022-07-06T05:00:38;16.30;99.90
46336;DHT22;31365;48.858;8.530;2022-07-06T05:03:07;16.30;99.90
46336;DHT22;31365;48.858;8.530;2022-07-06T05:05:36;16.40;99.90
46336;DHT22;31365;48.858;8.530;2022-07-06T05:08:05;16.40;99.90
46336;DHT22;31365;48.858;8.530;2022-07-06T05:10:34;16.50;99.90
46336;DHT22;31365;48.858;8.530;2022-07-06T05:13:02;16.60;99.90
46336;DHT22;31365;48.858;8.530;2022-07-06T05:15:31;16.60;99.90
46336;DHT22;31365;48.858;8.530;2022-07-06T05:17:59;16.70;99.90
46336;DHT22;31365;48.858;8.530;2022-07-06T05:20:27;16.70;99.90
46336;DHT22;31365;48.858;8.530;2022-07-06T05:22:58;16.80;99.90
46336;DHT22;31365;48.858;8.530;2022-07-06T05:25:29;16.90;99.90
46336;DHT22;31365;48.858;8.530;2022-07-06T05:27:59;17.10;99.90
46336;DHT22;31365;48.858;8.530;2022-07-06T05:30:28;17.10;99.90
46336;DHT22;31365;48.858;8.530;2022-07-06T05:32:57;17.20;99.90
46336;DHT22;31365;48.858;8.530;2022-07-06T05:35:25;17.10;99.90
46336;DHT22;31365;48.858;8.530;2022-07-06T05:38:15;17.20;99.90
46336;DHT22;31365;48.858;8.530;2022-07-06T05:40:44;17.20;99.90
46336;DHT22;31365;48.858;8.530;2022-07-06T05:43:12;17.10;99.90
46336;DHT22;31365;48.858;8.530;2022-07-06T05:45:41;17.30;99.90
46336;DHT22;31365;48.858;8.530;2022-07-06T05:48:10;17.30;99.90
46336;DHT22;31365;48.858;8.530;2022-07-06T05:50:57;17.40;99.90
46336;DHT22;31365;48.858;8.530;2022-07-06T05:53:26;17.40;99.90
46336;DHT22;31365;48.858;8.530;2022-07-06T05:55:56;17.60;99.90
46336;DHT22;31365;48.858;8.530;2022-07-06T05:58:27;17.50;99.90
46336;DHT22;31365;48.858;8.530;2022-07-06T06:00:58;17.70;99.90
46336;DHT22;31365;48.858;8.530;2022-07-06T06:03:27;17.70;99.90
46336;DHT22;31365;48.858;8.530;2022-07-06T06:05:55;17.80;99.90
46336;DHT22;31365;48.858;8.530;2022-07-06T06:08:26;17.80;99.90
46336;DHT22;31365;48.858;8.530;2022-07-06T06:10:55;17.80;99.90
46336;DHT22;31365;48.858;8.530;2022-07-06T06:13:26;17.80;99.90
46336;DHT22;31365;48.858;8.530;2022-07-06T06:15:54;17.80;99.90
46336;DHT22;31365;48.858;8.530;2022-07-06T06:18:23;17.80;99.90
46336;DHT22;31365;48.858;8.530;2022-07-06T06:20:52;17.70;99.90
46336;DHT22;31365;48.858;8.530;2022-07-06T06:23:21;17.80;99.90
46336;DHT22;31365;48.858;8.530;2022-07-06T06:25:51;17.80;99.90
46336;DHT22;31365;48.858;8.530;2022-07-06T06:28:19;17.90;99.90
46336;DHT22;31365;48.858;8.530;2022-07-06T06:30:48;17.90;99.90
46336;DHT22;31365;48.858;8.530;2022-07-06T06:33:18;18.00;99.90
46336;DHT22;31365;48.858;8.530;2022-07-06T06:35:48;18.20;99.90
46336;DHT22;31365;48.858;8.530;2022-07-06T06:38:19;18.10;99.90
46336;DHT22;31365;48.858;8.530;2022-07-06T06:40:51;18.20;99.90
46336;DHT22;31365;48.858;8.530;2022-07-06T06:43:20;18.20;99.90
46336;DHT22;31365;48.858;8.530;2022-07-06T06:46:21;18.20;99.90
46336;DHT22;31365;48.858;8.530;2022-07-06T06:48:50;18.30;99.90
46336;DHT22;31365;48.858;8.530;2022-07-06T06:51:18;18.20;99.90
46336;DHT22;31365;48.858;8.530;2022-07-06T06:53:47;18.20;99.90
46336;DHT22;31365;48.858;8.530;2022-07-06T06:56:17;18.30;99.90
46336;DHT22;31365;48.858;8.530;2022-07-06T06:58:45;18.20;99.90
46336;DHT22;31365;48.858;8.530;2022-07-06T07:01:34;18.30;99.90
46336;DHT22;31365;48.858;8.530;2022-07-06T07:04:03;18.30;99.90
46336;DHT22;31365;48.858;8.530;2022-07-06T07:06:33;18.30;99.90
46336;DHT22;31365;48.858;8.530;2022-07-06T07:09:01;18.20;99.90
46336;DHT22;31365;48.858;8.530;2022-07-06T07:11:31;18.40;99.90
46336;DHT22;31365;48.858;8.530;2022-07-06T07:14:00;18.60;99.90
46336;DHT22;31365;48.858;8.530;2022-07-06T07:16:29;18.60;99.90
46336;DHT22;31365;48.858;8.530;2022-07-06T07:18:57;18.70;99.90
46336;DHT22;31365;48.858;8.530;2022-07-06T07:21:25;18.60;99.90
46336;DHT22;31365;48.858;8.530;2022-07-06T07:23:53;18.90;99.90
46336;DHT22;31365;48.858;8.530;2022-07-06T07:26:22;18.80;99.90
46336;DHT22;31365;48.858;8.530;2022-07-06T07:28:51;18.90;99.90
46336;DHT22;31365;48.858;8.530;2022-07-06T07:31:19;18.90;99.90
46336;DHT22;31365;48.858;8.530;2022-07-06T07:33:48;18.80;99.90
46336;DHT22;31365;48.858;8.530;2022-07-06T07:36:24;18.80;99.90
46336;DHT22;31365;48.858;8.530;2022-07-06T07:38:53;18.80;99.90
46336;DHT22;31365;48.858;8.530;2022-07-06T07:41:21;18.80;99.90
46336;DHT22;31365;48.858;8.530;2022-07-06T07:43:51;18.70;99.90
46336;DHT22;31365;48.858;8.530;2022-07-06T07:46:19;18.80;99.90
46336;DHT22;31365;48.858;8.530;2022-07-06T07:48:48;19.00;99.90
46336;DHT22;31365;48.858;8.530;2022-07-06T07:51:18;19.00;99.90
46336;DHT22;31365;48.858;8.530;2022-07-06T07:53:46;19.00;99.90
46336;DHT22;31365;48.858;8.530;2022-07-06T07:56:14;19.00;99.90
46336;DHT22;31365;48.858;8.530;2022-07-06T07:58:43;19.00;99.90
46336;DHT22;31365;48.858;8.530;2022-07-06T08:01:15;19.20;99.90
46336;DHT22;31365;48.858;8.530;2022-07-06T08:03:43;19.30;99.90
46336;DHT22;31365;48.858;8.530;2022-07-06T08:06:12;19.40;99.90
46336;DHT22;31365;48.858;8.530;2022-07-06T08:08:40;19.40;99.90
46336;DHT22;31365;48.858;8.530;2022-07-06T08:11:09;19.40;99.90
46336;DHT22;31365;48.858;8.530;2022-07-06T08:13:46;19.40;99.70
46336;DHT22;31365;48.858;8.530;2022-07-06T08:16:15;19.30;99.90
46336;DHT22;31365;48.858;8.530;2022-07-06T08:18:43;19.50;99.90
46336;DHT22;31365;48.858;8.530;2022-07-06T08:21:12;19.60;99.90
46336;DHT22;31365;48.858;8.530;2022-07-06T08:23:51;19.70;99.80
46336;DHT22;31365;48.858;8.530;2022-07-06T08:26:20;19.80;99.90
46336;DHT22;31365;48.858;8.530;2022-07-06T08:28:49;19.90;99.20
46336;DHT22;31365;48.858;8.530;2022-07-06T08:31:19;19.70;99.70
46336;DHT22;31365;48.858;8.530;2022-07-06T08:34:07;19.80;99.40
46336;DHT22;31365;48.858;8.530;2022-07-06T08:36:36;19.80;99.50
46336;DHT22;31365;48.858;8.530;2022-07-06T08:39:04;19.90;99.70
46336;DHT22;31365;48.858;8.530;2022-07-06T08:41:33;20.00;99.20
46336;DHT22;31365;48.858;8.530;2022-07-06T08:44:02;19.90;99.10
46336;DHT22;31365;48.858;8.530;2022-07-06T08:46:32;19.80;99.20
46336;DHT22;31365;48.858;8.530;2022-07-06T08:49:04;19.80;99.20
46336;DHT22;31365;48.858;8.530;2022-07-06T08:51:34;19.80;99.30
46336;DHT22;31365;48.858;8.530;2022-07-06T08:54:03;19.90;99.70
46336;DHT22;31365;48.858;8.530;2022-07-06T08:56:32;20.00;99.30
46336;DHT22;31365;48.858;8.530;2022-07-06T08:59:00;20.30;99.40
46336;DHT22;31365;48.858;8.530;2022-07-06T09:01:29;20.40;99.30
46336;DHT22;31365;48.858;8.530;2022-07-06T09:04:00;20.40;99.40
46336;DHT22;31365;48.858;8.530;2022-07-06T09:06:33;20.30;99.20
46336;DHT22;31365;48.858;8.530;2022-07-06T09:09:05;20.30;98.90
46336;DHT22;31365;48.858;8.530;2022-07-06T09:11:34;20.40;98.90
46336;DHT22;31365;48.858;8.530;2022-07-06T09:14:04;20.40;98.30
46336;DHT22;31365;48.858;8.530;2022-07-06T09:16:32;20.50;98.60
46336;DHT22;31365;48.858;8.530;2022-07-06T09:19:06;20.60;98.20
46336;DHT22;31365;48.858;8.530;2022-07-06T09:21:35;20.70;98.10
46336;DHT22;31365;48.858;8.530;2022-07-06T09:24:07;20.90;98.30
46336;DHT22;31365;48.858;8.530;2022-07-06T09:26:37;21.00;98.20
46336;DHT22;31365;48.858;8.530;2022-07-06T09:29:06;21.10;97.90
46336;DHT22;31365;48.858;8.530;2022-07-06T09:31:35;21.00;97.20
46336;DHT22;31365;48.858;8.530;2022-07-06T09:34:06;20.90;98.00
46336;DHT22;31365;48.858;8.530;2022-07-06T09:36:43;20.80;97.90
46336;DHT22;31365;48.858;8.530;2022-07-06T09:39:20;20.90;97.90
46336;DHT22;31365;48.858;8.530;2022-07-06T09:41:52;20.80;97.80
46336;DHT22;31365;48.858;8.530;2022-07-06T09:44:23;20.80;97.80
46336;DHT22;31365;48.858;8.530;2022-07-06T09:46:55;20.90;98.40
46336;DHT22;31365;48.858;8.530;2022-07-06T09:49:27;21.10;98.00
46336;DHT22;31365;48.858;8.530;2022-07-06T09:51:57;21.30;97.80
46336;DHT22;31365;48.858;8.530;2022-07-06T09:54:27;21.20;97.30
46336;DHT22;31365;48.858;8.530;2022-07-06T09:56:56;21.20;97.30
46336;DHT22;31365;48.858;8.530;2022-07-06T09:59:33;21.10;96.90
46336;DHT22;31365;48.858;8.530;2022-07-06T10:02:04;21.20;97.60
46336;DHT22;31365;48.858;8.530;2022-07-06T10:04:35;21.40;97.00
46336;DHT22;31365;48.858;8.530;2022-07-06T10:07:06;21.40;96.70
46336;DHT22;31365;48.858;8.530;2022-07-06T10:09:36;21.10;97.00
46336;DHT22;31365;48.858;8.530;2022-07-06T10:12:07;21.20;97.40
46336;DHT22;31365;48.858;8.530;2022-07-06T10:14:40;21.40;97.10
46336;DHT22;31365;48.858;8.530;2022-07-06T10:17:17;21.40;96.50
46336;DHT22;31365;48.858;8.530;2022-07-06T10:19:48;21.60;96.30
46336;DHT22;31365;48.858;8.530;2022-07-06T10:22:19;21.60;95.90
46336;DHT22;31365;48.858;8.530;2022-07-06T10:24:49;21.70;95.80
46336;DHT22;31365;48.858;8.530;2022-07-06T10:27:18;21.60;95.60
46336;DHT22;31365;48.858;8.530;2022-07-06T10:29:46;21.70;96.30
46336;DHT22;31365;48.858;8.530;2022-07-06T10:32:17;22.00;96.00
46336;DHT22;31365;48.858;8.530;2022-07-06T10:34:49;22.20;95.00
46336;DHT22;31365;48.858;8.530;2022-07-06T10:37:23;22.30;94.50
46336;DHT22;31365;48.858;8.530;2022-07-06T10:39:53;22.40;94.70
46336;DHT22;31365;48.858;8.530;2022-07-06T10:42:44;22.70;94.70
46336;DHT22;31365;48.858;8.530;2022-07-06T10:45:20;22.70;93.90
46336;DHT22;31365;48.858;8.530;2022-07-06T10:48:19;22.70;93.00
46336;DHT22;31365;48.858;8.530;2022-07-06T10:50:53;22.90;93.40
46336;DHT22;31365;48.858;8.530;2022-07-06T10:53:24;23.30;93.20
46336;DHT22;31365;48.858;8.530;2022-07-06T10:55:54;23.50;93.00
46336;DHT22;31365;48.858;8.530;2022-07-06T10:58:38;23.50;92.00
46336;DHT22;31365;48.858;8.530;2022-07-06T11:01:09;23.40;92.30
46336;DHT22;31365;48.858;8.530;2022-07-06T11:03:40;23.20;91.80
46336;DHT22;31365;48.858;8.530;2022-07-06T11:06:14;23.30;91.90
46336;DHT22;31365;48.858;8.530;2022-07-06T11:08:54;23.30;92.10
46336;DHT22;31365;48.858;8.530;2022-07-06T11:11:25;23.20;92.00
46336;DHT22;31365;48.858;8.530;2022-07-06T11:13:59;23.20;92.50
46336;DHT22;31365;48.858;8.530;2022-07-06T11:16:30;23.10;92.50
46336;DHT22;31365;48.858;8.530;2022-07-06T11:19:08;23.20;92.20
46336;DHT22;31365;48.858;8.530;2022-07-06T11:21:43;23.40;92.10
46336;DHT22;31365;48.858;8.530;2022-07-06T11:24:15;23.60;91.80
46336;DHT22;31365;48.858;8.530;2022-07-06T11:26:45;24.00;92.20
46336;DHT22;31365;48.858;8.530;2022-07-06T11:29:16;24.50;91.30
46336;DHT22;31365;48.858;8.530;2022-07-06T11:31:49;25.20;90.40
46336;DHT22;31365;48.858;8.530;2022-07-06T11:34:22;25.60;88.10
46336;DHT22;31365;48.858;8.530;2022-07-06T11:36:56;26.30;86.10
46336;DHT22;31365;48.858;8.530;2022-07-06T11:39:27;27.10;86.00
46336;DHT22;31365;48.858;8.530;2022-07-06T11:41:56;27.20;82.90
46336;DHT22;31365;48.858;8.530;2022-07-06T11:44:26;26.80;82.40
46336;DHT22;31365;48.858;8.530;2022-07-06T11:46:55;27.00;82.80
46336;DHT22;31365;48.858;8.530;2022-07-06T11:49:26;27.50;82.70
46336;DHT22;31365;48.858;8.530;2022-07-06T11:51:56;28.00;82.20
46336;DHT22;31365;48.858;8.530;2022-07-06T11:54:26;28.40;81.10
46336;DHT22;31365;48.858;8.530;2022-07-06T11:56:56;28.30;80.80
46336;DHT22;31365;48.858;8.530;2022-07-06T11:59:27;28.00;80.10
46336;DHT22;31365;48.858;8.530;2022-07-06T12:02:00;28.40;79.20
46336;DHT22;31365;48.858;8.530;2022-07-06T12:04:31;28.60;78.40
46336;DHT22;31365;48.858;8.530;2022-07-06T12:07:03;29.00;77.40
46336;DHT22;31365;48.858;8.530;2022-07-06T12:09:34;28.30;77.60
46336;DHT22;31365;48.858;8.530;2022-07-06T12:12:04;27.50;78.30
46336;DHT22;31365;48.858;8.530;2022-07-06T12:14:36;27.00;79.00
46336;DHT22;31365;48.858;8.530;2022-07-06T12:17:07;27.50;79.90
46336;DHT22;31365;48.858;8.530;2022-07-06T12:19:37;28.50;77.00
46336;DHT22;31365;48.858;8.530;2022-07-06T12:22:09;29.20;76.00
46336;DHT22;31365;48.858;8.530;2022-07-06T12:24:42;29.90;75.40
46336;DHT22;31365;48.858;8.530;2022-07-06T12:27:14;30.40;74.90
46336;DHT22;31365;48.858;8.530;2022-07-06T12:29:44;30.00;73.30
46336;DHT22;31365;48.858;8.530;2022-07-06T12:32:17;28.90;74.80
46336;DHT22;31365;48.858;8.530;2022-07-06T12:34:46;28.90;75.30
46336;DHT22;31365;48.858;8.530;2022-07-06T12:37:17;28.80;74.60
46336;DHT22;31365;48.858;8.530;2022-07-06T12:39:47;28.40;76.90
46336;DHT22;31365;48.858;8.530;2022-07-06T12:42:17;27.90;77.40
46336;DHT22;31365;48.858;8.530;2022-07-06T12:44:49;27.90;77.80
46336;DHT22;31365;48.858;8.530;2022-07-06T12:47:21;28.80;75.70
46336;DHT22;31365;48.858;8.530;2022-07-06T12:50:05;29.20;74.00
46336;DHT22;31365;48.858;8.530;2022-07-06T12:52:36;29.40;74.10
46336;DHT22;31365;48.858;8.530;2022-07-06T12:55:06;30.20;71.60
46336;DHT22;31365;48.858;8.530;2022-07-06T12:57:43;30.50;70.50
46336;DHT22;31365;48.858;8.530;2022-07-06T13:00:14;30.40;70.30
46336;DHT22;31365;48.858;8.530;2022-07-06T13:02:45;30.60;69.90
46336;DHT22;31365;48.858;8.530;2022-07-06T13:05:34;30.30;70.10
46336;DHT22;31365;48.858;8.530;2022-07-06T13:08:07;29.70;71.10
46336;DHT22;31365;48.858;8.530;2022-07-06T13:10:36;30.10;70.40
46336;DHT22;31365;48.858;8.530;2022-07-06T13:13:08;30.60;69.90
46336;DHT22;31365;48.858;8.530;2022-07-06T13:15:36;30.70;68.50
46336;DHT22;31365;48.858;8.530;2022-07-06T13:18:05;30.50;68.80
46336;DHT22;31365;48.858;8.530;2022-07-06T13:20:39;30.70;68.50
46336;DHT22;31365;48.858;8.530;2022-07-06T13:23:09;31.20;67.70
46336;DHT22;31365;48.858;8.530;2022-07-06T13:25:38;31.30;68.20
46336;DHT22;31365;48.858;8.530;2022-07-06T13:28:06;31.90;66.70
46336;DHT22;31365;48.858;8.530;2022-07-06T13:30:34;32.70;65.60
46336;DHT22;31365;48.858;8.530;2022-07-06T13:33:03;33.10;64.50
46336;DHT22;31365;48.858;8.530;2022-07-06T13:35:31;32.10;64.40
46336;DHT22;31365;48.858;8.530;2022-07-06T13:37:59;31.20;66.60
46336;DHT22;31365;48.858;8.530;2022-07-06T13:40:29;30.50;68.50
46336;DHT22;31365;48.858;8.530;2022-07-06T13:42:58;31.10;68.00
46336;DHT22;31365;48.858;8.530;2022-07-06T13:45:26;31.90;67.00
46336;DHT22;31365;48.858;8.530;2022-07-06T13:47:54;32.20;64.50
46336;DHT22;31365;48.858;8.530;2022-07-06T13:50:22;32.50;64.30
46336;DHT22;31365;48.858;8.530;2022-07-06T13:52:51;32.60;64.70
46336;DHT22;31365;48.858;8.530;2022-07-06T13:55:20;32.40;63.90
46336;DHT22;31365;48.858;8.530;2022-07-06T13:57:50;32.30;64.30
46336;DHT22;31365;48.858;8.530;2022-07-06T14:00:18;32.50;63.90
46336;DHT22;31365;48.858;8.530;2022-07-06T14:02:47;33.10;63.50
46336;DHT22;31365;48.858;8.530;2022-07-06T14:05:15;33.60;63.00
46336;DHT22;31365;48.858;8.530;2022-07-06T14:07:44;34.20;61.60
46336;DHT22;31365;48.858;8.530;2022-07-06T14:10:12;34.70;60.70
46336;DHT22;31365;48.858;8.530;2022-07-06T14:12:40;34.70;58.50
46336;DHT22;31365;48.858;8.530;2022-07-06T14:15:11;34.30;58.60
46336;DHT22;31365;48.858;8.530;2022-07-06T14:17:39;34.40;58.30
46336;DHT22;31365;48.858;8.530;2022-07-06T14:20:09;34.50;57.90
46336;DHT22;31365;48.858;8.530;2022-07-06T14:22:39;35.00;57.60
46336;DHT22;31365;48.858;8.530;2022-07-06T14:25:08;35.10;56.40
46336;DHT22;31365;48.858;8.530;2022-07-06T14:27:36;34.80;56.60
46336;DHT22;31365;48.858;8.530;2022-07-06T14:30:08;34.30;57.10
46336;DHT22;31365;48.858;8.530;2022-07-06T14:32:39;33.80;57.30
46336;DHT22;31365;48.858;8.530;2022-07-06T14:35:11;32.70;58.20
46336;DHT22;31365;48.858;8.530;2022-07-06T14:37:39;31.50;59.60
46336;DHT22;31365;48.858;8.530;2022-07-06T14:40:09;31.40;60.10
46336;DHT22;31365;48.858;8.530;2022-07-06T14:42:37;31.70;60.70
46336;DHT22;31365;48.858;8.530;2022-07-06T14:45:07;31.70;60.70
46336;DHT22;31365;48.858;8.530;2022-07-06T14:47:36;31.60;59.50
46336;DHT22;31365;48.858;8.530;2022-07-06T14:50:05;31.70;59.50
46336;DHT22;31365;48.858;8.530;2022-07-06T14:52:34;31.80;58.70
46336;DHT22;31365;48.858;8.530;2022-07-06T14:55:03;31.90;59.20
46336;DHT22;31365;48.858;8.530;2022-07-06T14:57:40;32.20;58.90
46336;DHT22;31365;48.858;8.530;2022-07-06T15:00:09;32.30;57.80
46336;DHT22;31365;48.858;8.530;2022-07-06T15:02:40;31.70;57.90
46336;DHT22;31365;48.858;8.530;2022-07-06T15:05:09;31.40;58.10
46336;DHT22;31365;48.858;8.530;2022-07-06T15:07:38;30.80;58.60
46336;DHT22;31365;48.858;8.530;2022-07-06T15:10:08;30.80;59.10
46336;DHT22;31365;48.858;8.530;2022-07-06T15:12:37;31.10;59.10
46336;DHT22;31365;48.858;8.530;2022-07-06T15:15:07;31.60;58.40
46336;DHT22;31365;48.858;8.530;2022-07-06T15:17:57;31.90;56.70
46336;DHT22;31365;48.858;8.530;2022-07-06T15:20:26;31.90;57.10
46336;DHT22;31365;48.858;8.530;2022-07-06T15:22:54;31.00;58.00
46336;DHT22;31365;48.858;8.530;2022-07-06T15:25:23;29.90;58.10
46336;DHT22;31365;48.858;8.530;2022-07-06T15:27:51;29.40;59.30
46336;DHT22;31365;48.858;8.530;2022-07-06T15:30:19;29.00;60.60
46336;DHT22;31365;48.858;8.530;2022-07-06T15:32:57;28.70;60.30
46336;DHT22;31365;48.858;8.530;2022-07-06T15:35:26;28.20;58.90
46336;DHT22;31365;48.858;8.530;2022-07-06T15:37:54;28.00;59.80
46336;DHT22;31365;48.858;8.530;2022-07-06T15:40:22;28.10;60.50
46336;DHT22;31365;48.858;8.530;2022-07-06T15:42:52;28.20;61.20
46336;DHT22;31365;48.858;8.530;2022-07-06T15:45:21;28.00;59.80
46336;DHT22;31365;48.858;8.530;2022-07-06T15:47:52;28.00;60.40
46336;DHT22;31365;48.858;8.530;2022-07-06T15:50:21;27.90;60.00
46336;DHT22;31365;48.858;8.530;2022-07-06T15:52:50;28.00;59.90
46336;DHT22;31365;48.858;8.530;2022-07-06T15:55:18;28.00;60.50